createdAt,value
2022-12-12T00:02:55.207Z,96687.09
2022-12-12T00:07:59.250Z,96688.59
2022-12-12T00:13:04.995Z,96695.00
2022-12-12T00:18:08.600Z,96702.50
2022-12-12T00:23:12.287Z,96697.03
2022-12-12T00:28:17.304Z,96701.44
2022-12-12T00:33:21.036Z,96696.69
2022-12-12T00:38:25.116Z,96708.56
2022-12-12T00:43:30.222Z,96707.38
2022-12-12T00:48:34.076Z,96703.53
2022-12-12T00:53:38.568Z,96705.72
2022-12-12T00:58:43.711Z,96708.28
2022-12-12T01:03:47.956Z,96710.78
2022-12-12T01:08:51.568Z,96711.25
2022-12-12T01:13:56.761Z,96718.72
2022-12-12T01:19:01.291Z,96720.19
2022-12-12T01:24:05.463Z,96719.16
2022-12-12T01:29:10.689Z,96727.69
2022-12-12T01:34:14.221Z,96720.94
2022-12-12T01:39:17.732Z,96730.19
2022-12-12T01:44:44.869Z,96744.81
2022-12-12T01:49:53.430Z,96739.97
2022-12-12T01:55:00.726Z,96736.25
2022-12-12T02:00:10.058Z,96737.16
2022-12-12T02:05:23.559Z,96739.72
2022-12-12T02:10:27.129Z,96737.19
2022-12-12T02:15:43.789Z,96735.22
2022-12-12T02:20:55.206Z,96731.66
2022-12-12T02:26:25.428Z,96740.94
2022-12-12T02:31:35.897Z,96736.31
2022-12-12T02:36:48.794Z,96743.09
2022-12-12T02:41:57.061Z,96747.06
2022-12-12T02:47:06.218Z,96746.03
2022-12-12T02:52:11.055Z,96745.50
2022-12-12T02:57:16.748Z,96750.22
2022-12-12T03:03:17.672Z,96753.91
2022-12-12T03:08:36.893Z,96750.31
2022-12-12T03:13:47.636Z,96749.00
2022-12-12T03:18:59.471Z,96756.38
2022-12-12T03:24:07.565Z,96750.63
2022-12-12T03:29:15.610Z,96753.66
2022-12-12T03:34:23.624Z,96758.22
2022-12-12T03:39:33.697Z,96763.81
2022-12-12T03:44:43.464Z,96769.03
2022-12-12T03:49:53.162Z,96769.94
2022-12-12T03:55:04.305Z,96763.41
2022-12-12T04:00:10.715Z,96759.47
2022-12-12T04:05:23.186Z,96763.09
2022-12-12T04:10:47.481Z,96761.31
2022-12-12T04:16:01.116Z,96765.00
2022-12-12T04:21:34.862Z,96763.53
2022-12-12T04:26:42.017Z,96771.41
2022-12-12T04:31:51.983Z,96773.94
2022-12-12T04:36:57.323Z,96775.94
2022-12-12T04:42:03.427Z,96783.00
2022-12-12T04:47:08.550Z,96784.91
2022-12-12T04:52:16.483Z,96785.03
2022-12-12T04:57:25.310Z,96788.53
2022-12-12T05:02:39.220Z,96792.13
2022-12-12T05:07:54.519Z,96801.56
2022-12-12T05:13:01.416Z,96801.69
2022-12-12T05:18:09.862Z,96813.75
2022-12-12T05:23:14.969Z,96815.00
2022-12-12T05:28:18.605Z,96813.97
2022-12-12T05:33:22.209Z,96821.78
2022-12-12T05:38:27.180Z,96828.63
2022-12-12T05:43:31.664Z,96825.19
2022-12-12T05:48:35.719Z,96822.75
2022-12-12T05:53:43.160Z,96822.69
2022-12-12T05:58:47.679Z,96823.47
2022-12-12T06:03:51.551Z,96828.41
2022-12-12T06:08:56.696Z,96830.16
2022-12-12T06:14:00.532Z,96832.38
2022-12-12T06:19:04.948Z,96826.09
2022-12-12T06:24:10.785Z,96825.91
2022-12-12T06:29:15.002Z,96822.16
2022-12-12T06:34:18.660Z,96821.81
2022-12-12T06:39:23.658Z,96826.59
2022-12-12T06:44:27.308Z,96833.88
2022-12-12T06:49:30.856Z,96840.41
2022-12-12T06:54:37.113Z,96843.19
2022-12-12T06:59:40.719Z,96851.50
2022-12-12T07:04:44.373Z,96852.44
2022-12-12T07:09:49.513Z,96852.28
2022-12-12T07:14:53.174Z,96864.63
2022-12-12T07:19:56.814Z,96874.34
2022-12-12T07:25:01.807Z,96877.59
2022-12-12T07:30:05.950Z,96873.38
2022-12-12T07:35:10.421Z,96869.09
2022-12-12T07:40:15.554Z,96879.28
2022-12-12T07:45:20.197Z,96880.16
2022-12-12T07:50:24.787Z,96878.53
2022-12-12T07:55:30.023Z,96881.00
2022-12-12T08:00:33.740Z,96884.94
2022-12-12T08:05:40.700Z,96888.00
2022-12-12T08:10:45.759Z,96898.59
2022-12-12T08:15:49.273Z,96898.59
2022-12-12T08:20:53.004Z,96897.75
2022-12-12T08:25:58.318Z,96899.19
2022-12-12T08:31:02.092Z,96901.97
2022-12-12T08:36:13.790Z,96905.00
2022-12-12T08:41:19.790Z,96907.84
2022-12-12T08:46:24.632Z,96907.84
2022-12-12T08:51:28.242Z,96920.28
2022-12-12T08:56:33.653Z,96921.72
2022-12-12T09:01:37.659Z,96918.00
2022-12-12T09:06:41.642Z,96921.25
2022-12-12T09:11:46.586Z,96926.31
2022-12-12T09:16:50.233Z,96923.53
2022-12-12T09:21:53.749Z,96926.38
2022-12-12T09:26:58.716Z,96925.19
2022-12-12T09:32:06.531Z,96925.59
2022-12-12T09:37:10.103Z,96921.81
2022-12-12T09:42:22.917Z,96927.22
2022-12-12T09:47:35.765Z,96931.97
2022-12-12T09:52:39.875Z,96939.56
2022-12-12T09:57:49.528Z,96940.03
2022-12-12T10:03:15.142Z,96936.09
2022-12-12T10:08:25.468Z,96938.63
2022-12-12T10:13:32.697Z,96926.31
2022-12-12T10:18:41.112Z,96927.72
2022-12-12T10:23:50.576Z,96924.00
2022-12-12T10:29:00.221Z,96926.13
2022-12-12T10:34:18.832Z,96923.78
2022-12-12T10:39:29.990Z,96917.31
2022-12-12T10:44:54.231Z,96914.75
2022-12-12T10:50:07.436Z,96924.31
2022-12-12T10:55:20.347Z,96920.53
2022-12-12T11:00:32.614Z,96923.44
2022-12-12T11:05:39.357Z,96921.91
2022-12-12T11:10:43.146Z,96913.72
2022-12-12T11:15:53.739Z,96913.78
2022-12-12T11:21:07.983Z,96912.56
2022-12-12T11:26:15.165Z,96903.66
2022-12-12T11:31:24.546Z,96918.44
2022-12-12T11:36:34.525Z,96916.47
2022-12-12T11:41:58.607Z,96914.97
2022-12-12T11:47:23.171Z,96909.03
2022-12-12T11:52:29.722Z,96913.28
2022-12-12T11:57:51.930Z,96915.06
2022-12-12T12:03:19.380Z,96905.72
2022-12-12T12:08:40.364Z,96894.75
2022-12-12T12:14:00.637Z,96894.09
2022-12-12T12:19:13.873Z,96898.28
2022-12-12T12:24:32.347Z,96886.34
2022-12-12T12:30:13.641Z,96887.50
2022-12-12T12:35:31.345Z,96883.50
2022-12-12T12:40:50.187Z,96893.09
2022-12-12T12:45:59.965Z,96883.22
2022-12-12T12:51:11.231Z,96880.25
2022-12-12T12:56:26.309Z,96879.59
2022-12-12T13:01:36.161Z,96878.66
2022-12-12T13:06:52.726Z,96879.88
2022-12-12T13:12:02.793Z,96884.34
2022-12-12T13:17:13.537Z,96877.22
2022-12-12T13:22:26.211Z,96878.00
2022-12-12T13:27:33.107Z,96881.03
2022-12-12T13:32:54.906Z,96889.88
2022-12-12T13:38:00.694Z,96880.66
2022-12-12T13:43:10.078Z,96888.75
2022-12-12T13:48:45.919Z,96883.00
2022-12-12T13:54:14.243Z,96892.94
2022-12-12T13:59:30.703Z,96894.38
2022-12-12T14:04:36.815Z,96898.88
2022-12-12T14:09:49.515Z,96894.34
2022-12-12T14:14:57.022Z,96909.84
2022-12-12T14:20:01.522Z,96905.97
2022-12-12T14:25:09.421Z,96921.63
2022-12-12T14:30:18.874Z,96912.19
2022-12-12T14:35:32.599Z,96909.31
2022-12-12T14:40:41.537Z,96913.59
2022-12-12T14:45:55.879Z,96921.13
2022-12-12T14:51:09.588Z,96921.28
2022-12-12T14:56:17.222Z,96923.31
2022-12-12T15:01:37.564Z,96925.28
2022-12-12T15:06:43.377Z,96927.91
2022-12-12T15:11:50.178Z,96923.28
2022-12-12T15:17:00.364Z,96930.66
2022-12-12T15:22:05.035Z,96941.63
2022-12-12T15:27:19.604Z,96942.47
2022-12-12T15:32:26.050Z,96946.34
2022-12-12T15:37:31.468Z,96952.59
2022-12-12T15:42:37.153Z,96951.38
2022-12-12T15:47:41.166Z,96944.03
2022-12-12T15:52:44.946Z,96945.69
2022-12-12T15:57:52.319Z,96943.72
2022-12-12T16:03:05.014Z,96936.47
2022-12-12T16:08:39.104Z,96942.72
2022-12-12T16:13:46.758Z,96944.13
2022-12-12T16:18:50.308Z,96950.25
2022-12-12T16:23:53.998Z,96947.38
2022-12-12T16:28:58.996Z,96975.84
2022-12-12T16:34:03.908Z,96963.00
2022-12-12T16:39:07.522Z,96954.69
2022-12-12T16:44:12.775Z,96958.28
2022-12-12T16:49:16.405Z,96970.97
2022-12-12T16:54:20.122Z,96966.19
2022-12-12T16:59:25.064Z,96974.81
2022-12-12T17:04:29.132Z,96977.84
2022-12-12T17:09:32.799Z,96985.69
2022-12-12T17:14:39.493Z,96990.03
2022-12-12T17:19:43.062Z,96987.50
2022-12-12T17:24:46.664Z,96992.25
2022-12-12T17:29:51.713Z,96993.78
2022-12-12T17:34:55.397Z,97005.91
2022-12-12T17:39:59.133Z,97018.78
2022-12-12T17:45:05.724Z,97018.88
2022-12-12T17:50:10.846Z,97012.09
2022-12-12T17:55:53.503Z,97017.47
2022-12-12T18:00:40.079Z,97015.28
2022-12-12T18:05:43.708Z,97015.91
2022-12-12T18:10:47.275Z,97020.25
2022-12-12T18:15:56.302Z,97028.19
2022-12-12T18:21:03.888Z,97023.03
2022-12-12T18:26:10.016Z,97026.53
2022-12-12T18:31:15.320Z,97023.94
2022-12-12T18:36:21.009Z,97028.25
2022-12-12T18:41:26.304Z,97018.84
2022-12-12T18:46:35.911Z,97002.59
2022-12-12T18:51:43.852Z,97007.91
2022-12-12T18:56:48.570Z,97016.47
2022-12-12T19:01:53.633Z,97013.16
2022-12-12T19:06:58.756Z,97009.75
2022-12-12T19:12:02.910Z,97006.44
2022-12-12T19:17:08.675Z,97016.72
2022-12-12T19:22:39.964Z,97016.81
2022-12-12T19:27:36.230Z,97021.16
2022-12-12T19:32:41.177Z,97021.19
2022-12-12T19:37:44.927Z,97019.47
2022-12-12T19:42:48.617Z,97025.47
2022-12-12T19:47:53.620Z,97023.88
2022-12-12T19:52:57.135Z,97023.94
2022-12-12T19:58:02.517Z,97033.31
2022-12-12T20:03:07.741Z,97039.38
2022-12-12T20:08:11.414Z,97036.00
2022-12-12T20:13:15.294Z,97027.53
2022-12-12T20:18:20.282Z,97040.47
2022-12-12T20:23:24.240Z,97021.72
2022-12-12T20:28:28.633Z,97027.66
2022-12-12T20:33:34.414Z,97038.72
2022-12-12T20:38:39.426Z,97031.06
2022-12-12T20:43:44.401Z,97031.13
2022-12-12T20:48:51.036Z,97035.56
2022-12-12T20:53:54.791Z,97048.19
2022-12-12T20:59:01.631Z,97043.16
2022-12-12T21:04:09.672Z,97053.44
2022-12-12T21:09:19.146Z,97055.16
2022-12-12T21:14:27.905Z,97053.50
2022-12-12T21:19:33.242Z,97050.16
2022-12-12T21:24:36.964Z,97063.03
2022-12-12T21:29:40.563Z,97063.84
2022-12-12T21:34:45.569Z,97058.75
2022-12-12T21:39:51.298Z,97058.69
2022-12-12T21:44:54.940Z,97053.53
2022-12-12T21:50:00.101Z,97043.28
2022-12-12T21:55:03.693Z,97043.31
2022-12-12T22:00:09.004Z,97046.75
2022-12-12T22:05:17.561Z,97036.41
2022-12-12T22:10:21.041Z,97035.63
2022-12-12T22:15:24.564Z,97030.50
2022-12-12T22:20:30.050Z,97022.09
2022-12-12T22:25:33.665Z,97030.59
2022-12-12T22:30:37.340Z,97019.56
2022-12-12T22:35:42.985Z,97023.81
2022-12-12T22:40:54.626Z,97016.16
2022-12-12T22:45:58.247Z,97016.19
2022-12-12T22:51:12.762Z,97010.28
2022-12-12T22:56:17.017Z,97016.22
2022-12-12T23:01:24.311Z,97017.13
2022-12-12T23:06:31.066Z,97014.59
2022-12-12T23:11:35.354Z,97011.97
2022-12-12T23:16:39.217Z,97011.13
2022-12-12T23:21:44.530Z,97007.75
2022-12-12T23:26:51.510Z,97010.28
2022-12-12T23:31:55.233Z,97012.84
2022-12-12T23:37:00.247Z,97008.63
2022-12-12T23:42:04.430Z,97003.50
2022-12-12T23:47:08.526Z,97003.53
2022-12-12T23:52:14.702Z,97000.13
2022-12-12T23:57:19.045Z,96994.19
